createdAt,value
2022-10-18T00:02:06.574Z,4.60
2022-10-18T00:04:33.338Z,4.80
2022-10-18T00:06:59.957Z,6.40
2022-10-18T00:09:27.778Z,5.82
2022-10-18T00:11:55.467Z,5.38
2022-10-18T00:14:22.088Z,5.15
2022-10-18T00:16:48.659Z,5.38
2022-10-18T00:19:15.275Z,5.15
2022-10-18T00:21:42.114Z,5.70
2022-10-18T00:24:08.905Z,5.60
2022-10-18T00:26:35.644Z,4.80
2022-10-18T00:29:04.868Z,5.32
2022-10-18T00:31:36.192Z,5.47
2022-10-18T00:34:05.038Z,5.28
2022-10-18T00:36:32.577Z,5.43
2022-10-18T00:38:59.177Z,5.25
2022-10-18T00:41:27.827Z,5.50
2022-10-18T00:44:13.316Z,5.15
2022-10-18T00:46:43.260Z,5.50
2022-10-18T00:49:11.518Z,4.93
2022-10-18T00:51:44.272Z,5.60
2022-10-18T00:54:11.825Z,5.97
2022-10-18T00:56:38.415Z,5.68
2022-10-18T00:59:05.012Z,5.68
2022-10-18T01:01:31.620Z,5.63
2022-10-18T01:03:58.233Z,5.85
2022-10-18T01:06:25.169Z,5.00
2022-10-18T01:09:10.013Z,4.60
2022-10-18T01:11:39.621Z,4.82
2022-10-18T01:14:21.228Z,4.85
2022-10-18T01:16:50.378Z,4.75
2022-10-18T01:19:38.192Z,5.35
2022-10-18T01:22:13.604Z,4.53
2022-10-18T01:27:45.813Z,4.65
2022-10-18T01:30:37.548Z,4.68
2022-10-18T01:33:26.783Z,4.85
2022-10-18T01:36:21.445Z,4.90
2022-10-18T01:38:48.938Z,5.18
2022-10-18T01:41:15.959Z,4.75
2022-10-18T01:43:43.037Z,4.35
2022-10-18T01:46:09.715Z,4.70
2022-10-18T01:48:38.142Z,4.63
2022-10-18T01:51:05.273Z,4.25
2022-10-18T01:53:33.949Z,4.40
2022-10-18T01:56:11.514Z,4.20
2022-10-18T01:59:16.555Z,3.92
2022-10-18T02:02:24.270Z,4.43
2022-10-18T02:05:28.777Z,3.88
2022-10-18T02:08:19.284Z,4.50
2022-10-18T02:11:06.663Z,4.10
2022-10-18T02:13:40.947Z,4.40
2022-10-18T02:16:12.653Z,3.80
2022-10-18T02:18:41.730Z,4.05
2022-10-18T02:21:09.380Z,4.28
2022-10-18T02:23:35.975Z,3.97
2022-10-18T02:26:02.592Z,3.90
2022-10-18T02:28:29.304Z,4.28
2022-10-18T02:31:26.269Z,3.80
2022-10-18T02:34:02.897Z,4.03
2022-10-18T02:36:37.124Z,4.03
2022-10-18T02:39:06.763Z,3.83
2022-10-18T02:41:33.354Z,4.18
2022-10-18T02:43:59.957Z,4.38
2022-10-18T02:48:58.091Z,4.18
2022-10-18T02:51:25.318Z,3.88
2022-10-18T02:53:51.961Z,3.85
2022-10-18T02:56:18.532Z,3.95
2022-10-18T02:58:45.084Z,4.03
2022-10-18T03:01:11.741Z,4.38
2022-10-18T03:03:38.465Z,3.95
2022-10-18T03:06:05.186Z,4.30
2022-10-18T03:08:31.780Z,3.80
2022-10-18T03:10:58.321Z,3.55
2022-10-18T03:13:24.973Z,3.80
2022-10-18T03:15:51.605Z,3.40
2022-10-18T03:18:18.180Z,3.60
2022-10-18T03:20:44.770Z,4.43
2022-10-18T03:23:11.419Z,3.75
2022-10-18T03:25:40.502Z,4.68
2022-10-18T03:28:09.452Z,3.90
2022-10-18T03:30:36.006Z,3.85
2022-10-18T03:33:02.569Z,3.85
2022-10-18T03:35:29.136Z,3.53
2022-10-18T03:37:55.713Z,3.85
2022-10-18T03:40:22.355Z,3.83
2022-10-18T03:42:48.978Z,3.83
2022-10-18T03:45:15.587Z,3.67
2022-10-18T03:47:42.149Z,3.70
2022-10-18T03:50:09.160Z,3.65
2022-10-18T03:52:35.970Z,3.42
2022-10-18T03:55:02.634Z,3.50
2022-10-18T03:57:29.206Z,3.53
2022-10-18T03:59:55.767Z,4.30
2022-10-18T04:02:22.324Z,3.63
2022-10-18T04:04:49.475Z,3.55
2022-10-18T04:07:16.084Z,3.92
2022-10-18T04:09:42.695Z,4.25
2022-10-18T04:12:09.333Z,3.75
2022-10-18T04:14:35.942Z,4.25
2022-10-18T04:17:02.824Z,3.80
2022-10-18T04:19:29.398Z,3.35
2022-10-18T04:21:56.003Z,4.07
2022-10-18T04:24:22.704Z,3.45
2022-10-18T04:26:49.260Z,3.67
2022-10-18T04:29:15.858Z,3.42
2022-10-18T04:31:42.760Z,3.53
2022-10-18T04:34:10.324Z,3.65
2022-10-18T04:36:37.229Z,3.75
2022-10-18T04:39:03.825Z,3.92
2022-10-18T04:41:30.402Z,3.53
2022-10-18T04:43:57.012Z,3.25
2022-10-18T04:46:23.550Z,3.97
2022-10-18T04:48:50.749Z,3.50
2022-10-18T04:51:17.298Z,3.40
2022-10-18T04:53:43.927Z,2.95
2022-10-18T04:56:10.845Z,3.15
2022-10-18T04:58:37.443Z,3.22
2022-10-18T05:01:07.764Z,3.22
2022-10-18T05:03:34.724Z,3.38
2022-10-18T05:06:03.540Z,3.28
2022-10-18T05:08:30.927Z,4.18
2022-10-18T05:10:57.592Z,3.38
2022-10-18T05:13:24.458Z,3.45
2022-10-18T05:15:51.143Z,3.45
2022-10-18T05:18:17.806Z,3.05
2022-10-18T05:20:44.396Z,3.50
2022-10-18T05:23:11.047Z,3.80
2022-10-18T05:25:41.930Z,3.83
2022-10-18T05:28:15.669Z,4.30
2022-10-18T05:30:47.762Z,3.80
2022-10-18T05:33:14.319Z,3.67
2022-10-18T05:35:40.860Z,3.53
2022-10-18T05:38:07.472Z,3.60
2022-10-18T05:40:34.315Z,3.55
2022-10-18T05:43:00.878Z,3.88
2022-10-18T05:45:27.475Z,4.07
2022-10-18T05:47:54.797Z,4.20
2022-10-18T05:50:21.392Z,3.60
2022-10-18T05:52:47.985Z,4.22
2022-10-18T05:55:14.570Z,3.83
2022-10-18T05:57:41.140Z,4.20
2022-10-18T06:00:08.404Z,4.53
2022-10-18T06:02:35.008Z,4.85
2022-10-18T06:05:01.621Z,4.82
2022-10-18T06:07:28.183Z,4.05
2022-10-18T06:09:54.764Z,4.05
2022-10-18T06:12:21.368Z,4.45
2022-10-18T06:14:49.417Z,4.47
2022-10-18T06:17:15.974Z,4.32
2022-10-18T06:19:44.412Z,4.70
2022-10-18T06:22:11.908Z,3.90
2022-10-18T06:24:38.608Z,4.18
2022-10-18T06:27:09.066Z,5.22
2022-10-18T06:29:36.866Z,4.43
2022-10-18T06:32:03.570Z,5.18
2022-10-18T06:34:30.161Z,4.10
2022-10-18T06:36:58.788Z,5.05
2022-10-18T06:39:25.917Z,6.22
2022-10-18T06:41:52.680Z,5.68
2022-10-18T06:44:20.385Z,5.00
2022-10-18T06:46:47.922Z,4.95
2022-10-18T06:49:18.217Z,3.95
2022-10-18T06:51:46.256Z,4.47
2022-10-18T06:54:17.865Z,4.65
2022-10-18T06:56:44.862Z,4.77
2022-10-18T06:59:11.465Z,4.45
2022-10-18T07:01:38.188Z,3.72
2022-10-18T07:04:04.936Z,3.78
2022-10-18T07:06:31.567Z,4.03
2022-10-18T07:08:58.228Z,4.55
2022-10-18T07:11:26.455Z,3.80
2022-10-18T07:14:00.937Z,3.83
2022-10-18T07:16:27.533Z,4.03
2022-10-18T07:18:54.140Z,3.33
2022-10-18T07:21:22.878Z,2.88
2022-10-18T07:23:50.126Z,3.17
2022-10-18T07:26:30.298Z,3.05
2022-10-18T07:29:00.426Z,3.30
2022-10-18T07:31:27.454Z,3.17
2022-10-18T07:33:54.080Z,3.50
2022-10-18T07:36:24.719Z,3.75
2022-10-18T07:38:54.667Z,3.17
2022-10-18T07:41:21.853Z,3.67
2022-10-18T07:43:50.985Z,3.03
2022-10-18T07:46:18.043Z,3.30
2022-10-18T07:48:44.762Z,3.05
2022-10-18T07:51:11.614Z,3.53
2022-10-18T07:53:38.293Z,3.90
2022-10-18T07:56:09.701Z,3.42
2022-10-18T07:58:36.431Z,4.10
2022-10-18T08:01:07.212Z,3.53
2022-10-18T08:03:34.162Z,3.25
2022-10-18T08:06:00.790Z,2.80
2022-10-18T08:08:27.684Z,3.42
2022-10-18T08:10:55.323Z,3.17
2022-10-18T08:13:22.508Z,3.38
2022-10-18T08:15:49.143Z,3.40
2022-10-18T08:18:15.797Z,2.80
2022-10-18T08:20:43.887Z,3.40
2022-10-18T08:23:10.467Z,3.05
2022-10-18T08:25:37.058Z,3.42
2022-10-18T08:28:03.729Z,3.25
2022-10-18T08:30:30.328Z,3.50
2022-10-18T08:32:56.898Z,3.70
2022-10-18T08:35:23.521Z,3.17
2022-10-18T08:37:50.214Z,2.40
2022-10-18T08:40:16.889Z,3.25
2022-10-18T08:43:04.898Z,3.15
2022-10-18T08:45:43.529Z,3.20
2022-10-18T08:48:40.916Z,2.80
2022-10-18T08:51:37.525Z,3.33
2022-10-18T08:54:12.792Z,3.58
2022-10-18T08:56:40.054Z,3.53
2022-10-18T08:59:11.394Z,3.85
2022-10-18T09:01:59.837Z,3.47
2022-10-18T09:04:47.531Z,3.33
2022-10-18T09:07:36.794Z,3.80
2022-10-18T09:10:21.779Z,4.35
2022-10-18T09:13:17.733Z,4.07
2022-10-18T09:16:11.221Z,4.00
2022-10-18T09:19:02.735Z,3.25
2022-10-18T09:21:54.910Z,3.30
2022-10-18T09:24:50.669Z,3.47
2022-10-18T09:27:18.833Z,3.00
2022-10-18T09:29:48.313Z,3.25
2022-10-18T09:32:33.393Z,2.90
2022-10-18T09:35:06.379Z,2.40
2022-10-18T09:40:27.071Z,2.53
2022-10-18T09:43:14.869Z,2.95
2022-10-18T09:45:43.316Z,2.63
2022-10-18T09:48:18.904Z,2.38
2022-10-18T09:51:11.433Z,2.72
2022-10-18T09:53:45.671Z,2.53
2022-10-18T09:56:17.775Z,3.10
2022-10-18T09:58:46.551Z,2.75
2022-10-18T10:01:25.080Z,2.72
2022-10-18T10:03:51.825Z,2.92
2022-10-18T10:06:32.131Z,2.78
2022-10-18T10:09:01.444Z,3.28
2022-10-18T10:11:40.297Z,3.55
2022-10-18T10:16:52.622Z,3.28
2022-10-18T10:19:24.677Z,3.10
2022-10-18T10:21:53.560Z,2.97
2022-10-18T10:24:26.186Z,3.10
2022-10-18T10:27:00.697Z,2.97
2022-10-18T10:29:53.741Z,3.10
2022-10-18T10:34:47.807Z,3.35
2022-10-18T10:37:23.314Z,2.80
2022-10-18T10:40:19.252Z,2.97
2022-10-18T10:43:19.581Z,3.22
2022-10-18T10:45:59.936Z,4.32
2022-10-18T10:48:31.015Z,3.38
2022-10-18T10:51:04.984Z,3.30
2022-10-18T10:53:51.056Z,2.97
2022-10-18T10:56:28.436Z,3.80
2022-10-18T10:58:56.346Z,2.97
2022-10-18T11:01:31.796Z,3.28
2022-10-18T11:04:03.905Z,3.50
2022-10-18T11:06:34.548Z,2.80
2022-10-18T11:09:02.019Z,2.88
2022-10-18T11:11:37.091Z,2.58
2022-10-18T11:14:26.196Z,2.60
2022-10-18T11:17:34.823Z,2.30
2022-10-18T11:20:07.490Z,2.42
2022-10-18T11:25:04.449Z,2.25
2022-10-18T11:27:57.377Z,2.85
2022-10-18T11:30:42.792Z,2.53
2022-10-18T11:33:15.437Z,2.83
2022-10-18T11:38:26.924Z,2.60
2022-10-18T11:41:04.681Z,2.67
2022-10-18T11:44:02.262Z,2.47
2022-10-18T11:46:45.261Z,2.47
2022-10-18T11:49:33.398Z,2.10
2022-10-18T11:52:16.115Z,1.92
2022-10-18T11:54:51.729Z,2.42
2022-10-18T11:57:30.387Z,2.00
2022-10-18T12:00:31.282Z,2.28
2022-10-18T12:03:18.632Z,1.90
2022-10-18T12:05:46.482Z,1.67
2022-10-18T12:08:17.248Z,2.75
2022-10-18T12:11:03.988Z,2.08
2022-10-18T12:13:37.372Z,1.92
2022-10-18T12:16:04.677Z,2.28
2022-10-18T12:18:31.432Z,2.33
2022-10-18T12:20:58.697Z,2.28
2022-10-18T12:23:39.139Z,2.00
2022-10-18T12:26:07.342Z,1.40
2022-10-18T12:28:43.036Z,1.40
2022-10-18T12:31:15.420Z,2.10
2022-10-18T12:33:47.074Z,2.05
2022-10-18T12:36:22.890Z,2.10
2022-10-18T12:39:00.984Z,1.90
2022-10-18T12:41:33.172Z,2.28
2022-10-18T12:44:05.541Z,1.67
2022-10-18T12:46:58.045Z,1.77
2022-10-18T12:49:40.214Z,2.22
2022-10-18T12:52:29.653Z,2.35
2022-10-18T12:55:19.538Z,2.67
2022-10-18T12:57:51.823Z,2.40
2022-10-18T13:00:30.637Z,2.25
2022-10-18T13:03:09.172Z,2.00
2022-10-18T13:05:56.312Z,1.70
2022-10-18T13:08:29.305Z,2.00
2022-10-18T13:11:01.696Z,1.65
2022-10-18T13:13:39.180Z,1.65
2022-10-18T13:16:20.642Z,1.73
2022-10-18T13:18:50.207Z,1.40
2022-10-18T13:21:26.024Z,1.30
2022-10-18T13:24:24.180Z,1.40
2022-10-18T13:30:12.743Z,1.50
2022-10-18T13:33:22.276Z,2.15
2022-10-18T13:35:58.767Z,1.40
2022-10-18T13:38:48.074Z,1.38
2022-10-18T13:41:19.371Z,1.40
2022-10-18T13:44:04.727Z,1.63
2022-10-18T13:46:34.419Z,1.33
2022-10-18T13:49:24.918Z,1.60
2022-10-18T13:52:13.229Z,1.77
2022-10-18T13:54:56.538Z,1.70
2022-10-18T13:57:44.787Z,1.83
2022-10-18T14:00:37.084Z,2.13
2022-10-18T14:03:56.916Z,2.08
2022-10-18T14:06:27.437Z,1.88
2022-10-18T14:09:26.262Z,1.98
2022-10-18T14:12:14.361Z,1.88
2022-10-18T14:14:46.048Z,1.67
2022-10-18T14:17:50.322Z,1.88
2022-10-18T14:20:19.062Z,2.15
2022-10-18T14:22:54.536Z,1.92
2022-10-18T14:25:32.806Z,2.10
2022-10-18T14:28:11.393Z,1.60
2022-10-18T14:30:57.987Z,2.00
2022-10-18T14:33:26.600Z,1.92
2022-10-18T14:36:00.252Z,2.08
2022-10-18T14:38:26.867Z,2.00
2022-10-18T14:41:11.842Z,2.10
2022-10-18T14:43:38.481Z,2.13
2022-10-18T14:46:17.596Z,2.03
2022-10-18T14:48:58.971Z,2.13
2022-10-18T14:51:26.727Z,1.65
2022-10-18T14:53:53.444Z,2.05
2022-10-18T14:56:24.633Z,1.60
2022-10-18T14:58:55.350Z,1.92
2022-10-18T15:01:25.947Z,1.70
2022-10-18T15:03:56.500Z,1.50
2022-10-18T15:06:23.111Z,2.05
2022-10-18T15:08:57.279Z,1.77
2022-10-18T15:11:24.489Z,1.83
2022-10-18T15:13:59.777Z,2.25
2022-10-18T15:16:28.866Z,1.95
2022-10-18T15:19:07.532Z,2.10
2022-10-18T15:21:35.788Z,2.15
2022-10-18T15:24:26.755Z,2.60
2022-10-18T15:26:54.439Z,2.17
2022-10-18T15:29:21.301Z,2.13
2022-10-18T15:31:49.763Z,2.55
2022-10-18T15:34:24.090Z,2.50
2022-10-18T15:36:51.916Z,2.65
2022-10-18T15:39:26.676Z,2.70
2022-10-18T15:41:57.063Z,2.33
2022-10-18T15:44:23.691Z,2.70
2022-10-18T15:46:53.085Z,2.95
2022-10-18T15:49:44.076Z,2.42
2022-10-18T15:52:37.522Z,2.70
2022-10-18T15:55:29.768Z,2.70
2022-10-18T15:58:09.928Z,2.80
2022-10-18T16:00:36.576Z,2.65
2022-10-18T16:03:03.188Z,2.92
2022-10-18T16:05:29.843Z,2.35
2022-10-18T16:07:56.419Z,3.22
2022-10-18T16:10:23.046Z,2.70
2022-10-18T16:12:49.720Z,2.90
2022-10-18T16:15:16.487Z,3.13
2022-10-18T16:17:43.112Z,2.95
2022-10-18T16:20:23.301Z,2.80
2022-10-18T16:22:49.956Z,2.60
2022-10-18T16:25:16.858Z,2.85
2022-10-18T16:27:43.473Z,3.00
2022-10-18T16:30:19.650Z,2.83
2022-10-18T16:32:46.673Z,2.60
2022-10-18T16:35:13.820Z,2.45
2022-10-18T16:37:40.595Z,2.78
2022-10-18T16:42:51.036Z,2.97
2022-10-18T16:45:18.015Z,2.83
2022-10-18T16:47:44.816Z,2.92
2022-10-18T16:50:16.737Z,2.78
2022-10-18T16:52:43.646Z,2.83
2022-10-18T16:55:17.150Z,3.42
2022-10-18T16:57:43.885Z,3.30
2022-10-18T17:00:16.756Z,3.05
2022-10-18T17:02:43.323Z,3.47
2022-10-18T17:05:09.965Z,3.03
2022-10-18T17:07:36.583Z,2.95
2022-10-18T17:10:03.497Z,3.25
2022-10-18T17:12:30.262Z,3.25
2022-10-18T17:14:56.963Z,2.83
2022-10-18T17:17:23.593Z,3.38
2022-10-18T17:19:50.159Z,4.22
2022-10-18T17:22:16.788Z,3.50
2022-10-18T17:24:43.394Z,3.83
2022-10-18T17:27:10.895Z,3.75
2022-10-18T17:29:37.457Z,3.53
2022-10-18T17:32:04.108Z,3.72
2022-10-18T17:34:30.758Z,3.80
2022-10-18T17:36:57.432Z,3.83
2022-10-18T17:39:24.070Z,4.03
2022-10-18T17:41:50.776Z,4.03
2022-10-18T17:44:17.391Z,4.50
2022-10-18T17:46:43.998Z,3.63
2022-10-18T17:49:10.891Z,3.40
2022-10-18T17:51:37.440Z,3.30
2022-10-18T17:54:05.848Z,3.40
2022-10-18T17:56:34.585Z,3.30
2022-10-18T17:59:01.552Z,3.33
2022-10-18T18:01:28.262Z,3.50
2022-10-18T18:03:58.305Z,3.40
2022-10-18T18:06:36.412Z,3.33
2022-10-18T18:09:23.377Z,4.10
2022-10-18T18:11:51.521Z,3.80
2022-10-18T18:14:18.276Z,4.10
2022-10-18T18:16:46.564Z,4.30
2022-10-18T18:19:14.024Z,4.38
2022-10-18T18:21:40.952Z,4.22
2022-10-18T18:24:07.906Z,5.30
2022-10-18T18:26:35.923Z,4.93
2022-10-18T18:31:39.917Z,4.40
2022-10-18T18:34:09.580Z,4.30
2022-10-18T18:36:36.203Z,4.05
2022-10-18T18:39:05.693Z,4.72
2022-10-18T18:41:32.577Z,5.10
2022-10-18T18:44:01.008Z,4.68
2022-10-18T18:46:29.466Z,5.45
2022-10-18T18:48:59.079Z,5.00
2022-10-18T18:51:26.256Z,5.35
2022-10-18T18:53:53.115Z,5.45
2022-10-18T18:56:24.230Z,5.70
2022-10-18T18:58:51.809Z,4.68
2022-10-18T19:01:20.350Z,5.18
2022-10-18T19:03:48.728Z,5.45
2022-10-18T19:06:17.883Z,5.60
2022-10-18T19:08:45.086Z,5.75
2022-10-18T19:11:17.108Z,5.95
2022-10-18T19:13:43.902Z,5.17
2022-10-18T19:16:21.273Z,5.03
2022-10-18T19:18:54.886Z,5.10
2022-10-18T19:21:22.305Z,5.15
2022-10-18T19:23:50.237Z,4.95
2022-10-18T19:26:29.094Z,5.18
2022-10-18T19:28:56.017Z,4.55
2022-10-18T19:31:23.145Z,5.00
2022-10-18T19:33:59.411Z,5.18
2022-10-18T19:36:27.138Z,5.93
2022-10-18T19:38:53.737Z,5.32
2022-10-18T19:41:20.367Z,6.68
2022-10-18T19:43:46.959Z,6.75
2022-10-18T19:46:13.486Z,6.57
2022-10-18T19:48:40.050Z,6.65
2022-10-18T19:51:09.416Z,7.05
2022-10-18T19:53:36.544Z,7.40
2022-10-18T19:56:04.158Z,7.20
2022-10-18T19:58:31.065Z,7.13
2022-10-18T20:00:58.020Z,6.75
2022-10-18T20:03:24.982Z,6.40
2022-10-18T20:05:56.467Z,6.53
2022-10-18T20:08:23.937Z,6.97
2022-10-18T20:10:50.653Z,6.63
2022-10-18T20:13:17.574Z,7.05
2022-10-18T20:15:46.839Z,7.18
2022-10-18T20:18:13.438Z,7.35
2022-10-18T20:20:41.606Z,7.47
2022-10-18T20:23:10.306Z,6.93
2022-10-18T20:25:36.914Z,7.18
2022-10-18T20:28:04.331Z,6.63
2022-10-18T20:30:30.970Z,7.60
2022-10-18T20:32:57.590Z,7.57
2022-10-18T20:35:24.142Z,7.05
2022-10-18T20:37:50.708Z,7.85
2022-10-18T20:40:17.361Z,7.30
2022-10-18T20:42:43.967Z,7.43
2022-10-18T20:45:10.799Z,8.27
2022-10-18T20:47:37.403Z,8.50
2022-10-18T20:50:04.276Z,8.43
2022-10-18T20:52:30.847Z,8.60
2022-10-18T20:54:57.403Z,8.50
2022-10-18T20:57:23.996Z,8.27
2022-10-18T20:59:50.641Z,8.88
2022-10-18T21:02:17.229Z,10.20
2022-10-18T21:04:43.762Z,9.18
2022-10-18T21:07:10.358Z,9.35
2022-10-18T21:09:40.426Z,10.43
2022-10-18T21:12:07.005Z,9.27
2022-10-18T21:14:33.641Z,9.35
2022-10-18T21:17:00.231Z,9.98
2022-10-18T21:19:27.229Z,9.18
2022-10-18T21:21:56.246Z,10.25
2022-10-18T21:24:24.224Z,9.40
2022-10-18T21:26:50.841Z,9.55
2022-10-18T21:29:22.013Z,9.98
2022-10-18T21:31:49.334Z,11.75
2022-10-18T21:34:17.524Z,11.70
2022-10-18T21:36:45.795Z,11.55
2022-10-18T21:39:15.209Z,11.85
2022-10-18T21:42:48.466Z,10.35
2022-10-18T21:46:14.530Z,10.07
2022-10-18T21:52:25.119Z,9.48
2022-10-18T21:58:20.531Z,9.65
2022-10-18T22:00:47.189Z,9.85
2022-10-18T22:03:13.952Z,9.60
2022-10-18T22:05:40.522Z,9.40
2022-10-18T22:08:07.450Z,10.68
2022-10-18T22:10:33.995Z,9.93
2022-10-18T22:13:00.642Z,9.70
2022-10-18T22:15:27.240Z,9.65
2022-10-18T22:17:53.855Z,9.30
2022-10-18T22:20:20.428Z,9.68
2022-10-18T22:22:47.060Z,8.82
2022-10-18T22:25:13.630Z,10.38
2022-10-18T22:27:40.314Z,10.52
2022-10-18T22:30:07.263Z,10.05
2022-10-18T22:32:33.865Z,10.23
2022-10-18T22:35:00.842Z,9.18
2022-10-18T22:37:27.405Z,10.07
2022-10-18T22:39:54.026Z,10.05
2022-10-18T22:42:20.615Z,10.13
2022-10-18T22:44:47.192Z,11.20
2022-10-18T22:47:13.781Z,10.40
2022-10-18T22:49:40.308Z,9.77
2022-10-18T22:52:06.887Z,10.02
2022-10-18T22:54:33.483Z,10.50
2022-10-18T22:57:00.070Z,8.77
2022-10-18T22:59:26.619Z,9.15
2022-10-18T23:01:53.224Z,8.45
2022-10-18T23:04:19.801Z,9.30
2022-10-18T23:06:46.383Z,9.82
2022-10-18T23:09:12.918Z,8.55
2022-10-18T23:11:39.506Z,9.00
2022-10-18T23:14:06.619Z,9.25
2022-10-18T23:16:33.269Z,9.30
2022-10-18T23:18:59.959Z,8.60
2022-10-18T23:21:28.139Z,9.45
2022-10-18T23:23:55.157Z,8.93
2022-10-18T23:26:23.672Z,9.48
2022-10-18T23:28:50.994Z,8.45
2022-10-18T23:31:25.650Z,8.68
2022-10-18T23:33:54.810Z,8.35
2022-10-18T23:36:22.036Z,8.68
2022-10-18T23:38:48.733Z,7.85
2022-10-18T23:41:15.828Z,7.47
2022-10-18T23:43:42.916Z,7.85
2022-10-18T23:46:09.850Z,8.23
2022-10-18T23:48:36.429Z,9.02
2022-10-18T23:51:03.237Z,8.45
2022-10-18T23:53:30.384Z,8.75
2022-10-18T23:56:01.638Z,8.80
2022-10-18T23:58:30.142Z,9.10
